createdAt,value
2022-07-30T00:00:59.352Z,0.00
2022-07-30T00:01:59.217Z,0.00
2022-07-30T00:04:03.272Z,0.00
2022-07-30T00:05:03.095Z,0.00
2022-07-30T00:06:55.930Z,0.00
2022-07-30T00:07:55.902Z,0.00
2022-07-30T00:09:59.822Z,0.00
2022-07-30T00:10:59.767Z,0.00
2022-07-30T00:13:03.699Z,0.00
2022-07-30T00:14:03.650Z,0.00
2022-07-30T00:16:07.568Z,0.00
2022-07-30T00:17:07.550Z,0.00
2022-07-30T00:18:07.483Z,0.00
2022-07-30T00:19:07.456Z,0.00
2022-07-30T00:20:07.438Z,0.00
2022-07-30T00:21:07.397Z,0.00
2022-07-30T00:22:07.374Z,0.00
2022-07-30T00:23:07.341Z,0.00
2022-07-30T00:24:07.307Z,0.00
2022-07-30T00:25:07.281Z,0.00
2022-07-30T00:26:07.256Z,0.00
2022-07-30T00:27:07.215Z,0.00
2022-07-30T00:28:07.188Z,0.00
2022-07-30T00:29:07.156Z,0.00
2022-07-30T00:30:07.132Z,0.00
2022-07-30T00:31:07.137Z,0.00
2022-07-30T00:32:07.067Z,0.00
2022-07-30T00:33:08.095Z,0.00
2022-07-30T00:34:07.009Z,0.00
2022-07-30T00:35:06.981Z,0.00
2022-07-30T00:36:06.947Z,0.00
2022-07-30T00:37:06.918Z,0.00
2022-07-30T00:38:06.890Z,0.00
2022-07-30T00:39:06.874Z,0.00
2022-07-30T00:40:06.844Z,0.00
2022-07-30T00:41:06.816Z,0.00
2022-07-30T00:42:06.772Z,0.00
2022-07-30T00:43:06.740Z,0.00
2022-07-30T00:44:06.713Z,0.00
2022-07-30T00:45:06.681Z,0.00
2022-07-30T00:46:06.772Z,0.00
2022-07-30T00:47:06.622Z,0.00
2022-07-30T00:48:06.588Z,0.00
2022-07-30T00:49:06.616Z,0.00
2022-07-30T00:50:06.530Z,0.00
2022-07-30T00:51:06.510Z,0.00
2022-07-30T00:52:06.473Z,0.00
2022-07-30T00:53:06.441Z,0.00
2022-07-30T00:54:06.412Z,0.00
2022-07-30T00:55:06.382Z,0.00
2022-07-30T00:56:06.358Z,0.00
2022-07-30T00:57:06.319Z,0.00
2022-07-30T00:58:06.296Z,0.00
2022-07-30T00:59:06.259Z,0.00
2022-07-30T01:00:06.229Z,0.00
2022-07-30T01:01:06.245Z,0.00
2022-07-30T01:02:06.234Z,0.00
2022-07-30T01:03:06.143Z,0.00
2022-07-30T01:04:06.109Z,0.00
2022-07-30T01:05:06.079Z,0.00
2022-07-30T01:06:06.051Z,0.00
2022-07-30T01:07:06.020Z,0.00
2022-07-30T01:08:06.031Z,0.00
2022-07-30T01:09:05.959Z,0.00
2022-07-30T01:10:05.933Z,0.00
2022-07-30T01:11:05.933Z,0.00
2022-07-30T01:12:05.867Z,0.00
2022-07-30T01:13:05.836Z,0.00
2022-07-30T01:14:05.825Z,0.00
2022-07-30T01:15:05.778Z,0.00
2022-07-30T01:16:05.754Z,0.00
2022-07-30T01:17:05.714Z,0.00
2022-07-30T01:18:05.690Z,0.00
2022-07-30T01:19:05.653Z,0.00
2022-07-30T01:20:05.623Z,0.00
2022-07-30T01:21:05.597Z,0.00
2022-07-30T01:22:05.574Z,0.00
2022-07-30T01:23:05.533Z,0.00
2022-07-30T01:24:05.504Z,0.00
2022-07-30T01:25:05.482Z,0.00
2022-07-30T01:26:05.444Z,0.00
2022-07-30T01:27:05.414Z,0.00
2022-07-30T01:28:05.383Z,0.00
2022-07-30T01:29:05.376Z,0.00
2022-07-30T01:30:05.324Z,0.00
2022-07-30T01:31:05.290Z,0.00
2022-07-30T01:32:05.344Z,0.00
2022-07-30T01:33:05.231Z,0.00
2022-07-30T01:34:05.200Z,0.00
2022-07-30T01:35:05.174Z,0.00
2022-07-30T01:36:05.141Z,0.00
2022-07-30T01:37:05.108Z,0.00
2022-07-30T01:38:05.083Z,0.00
2022-07-30T01:39:05.050Z,0.00
2022-07-30T01:40:05.028Z,0.00
2022-07-30T01:41:05.000Z,0.00
2022-07-30T01:42:04.964Z,0.00
2022-07-30T01:43:04.930Z,0.00
2022-07-30T01:44:04.899Z,0.00
2022-07-30T01:45:04.871Z,0.00
2022-07-30T01:46:04.922Z,0.00
2022-07-30T01:47:04.815Z,0.00
2022-07-30T01:48:04.782Z,0.00
2022-07-30T01:49:04.769Z,0.00
2022-07-30T01:50:04.718Z,0.00
2022-07-30T01:51:04.695Z,0.00
2022-07-30T01:52:04.670Z,0.00
2022-07-30T01:53:04.632Z,0.00
2022-07-30T01:54:04.597Z,0.00
2022-07-30T01:55:04.575Z,0.00
2022-07-30T01:56:04.540Z,0.00
2022-07-30T01:57:04.516Z,0.00
2022-07-30T01:58:04.479Z,0.00
2022-07-30T01:59:04.446Z,0.00
2022-07-30T02:00:04.416Z,0.00
2022-07-30T02:01:04.492Z,0.00
2022-07-30T02:02:04.359Z,0.00
2022-07-30T02:03:04.355Z,0.00
2022-07-30T02:04:04.348Z,0.00
2022-07-30T02:05:04.264Z,0.00
2022-07-30T02:06:04.237Z,0.00
2022-07-30T02:07:04.420Z,0.00
2022-07-30T02:08:04.177Z,0.00
2022-07-30T02:09:10.718Z,0.00
2022-07-30T02:10:04.119Z,0.00
2022-07-30T02:11:04.087Z,0.00
2022-07-30T02:12:04.137Z,0.00
2022-07-30T02:13:04.027Z,0.00
2022-07-30T02:14:03.991Z,0.00
2022-07-30T02:15:03.963Z,0.00
2022-07-30T02:16:03.956Z,0.00
2022-07-30T02:17:04.281Z,0.00
2022-07-30T02:18:03.895Z,0.00
2022-07-30T02:19:04.439Z,0.00
2022-07-30T02:20:09.379Z,0.00
2022-07-30T02:21:07.255Z,0.00
2022-07-30T02:22:03.751Z,0.00
2022-07-30T02:23:03.725Z,0.00
2022-07-30T02:24:03.690Z,0.00
2022-07-30T02:25:03.660Z,0.00
2022-07-30T02:26:03.629Z,0.00
2022-07-30T02:27:03.984Z,0.00
2022-07-30T02:28:03.567Z,0.00
2022-07-30T02:29:04.910Z,0.00
2022-07-30T02:30:03.509Z,0.00
2022-07-30T02:31:03.523Z,0.00
2022-07-30T02:32:03.446Z,0.00
2022-07-30T02:33:03.415Z,0.00
2022-07-30T02:34:03.385Z,0.00
2022-07-30T02:35:03.359Z,0.00
2022-07-30T02:36:03.320Z,0.00
2022-07-30T02:37:03.732Z,0.00
2022-07-30T02:38:03.262Z,0.00
2022-07-30T02:39:03.234Z,0.00
2022-07-30T02:40:03.205Z,0.00
2022-07-30T02:41:03.169Z,0.00
2022-07-30T02:42:03.141Z,0.00
2022-07-30T02:43:03.112Z,0.00
2022-07-30T02:44:03.079Z,0.00
2022-07-30T02:45:03.057Z,0.00
2022-07-30T02:46:03.019Z,0.00
2022-07-30T02:47:04.908Z,0.00
2022-07-30T02:48:02.957Z,0.00
2022-07-30T02:49:02.995Z,0.00
2022-07-30T02:50:02.898Z,0.00
2022-07-30T02:51:02.867Z,0.00
2022-07-30T02:52:02.859Z,0.00
2022-07-30T02:53:02.806Z,0.00
2022-07-30T02:54:02.776Z,0.00
2022-07-30T02:55:02.741Z,0.00
2022-07-30T02:56:02.719Z,0.00
2022-07-30T02:57:03.170Z,0.00
2022-07-30T02:58:02.650Z,0.00
2022-07-30T02:59:02.619Z,0.00
2022-07-30T03:00:02.590Z,0.00
2022-07-30T03:01:03.217Z,0.00
2022-07-30T03:02:02.604Z,0.00
2022-07-30T03:03:02.499Z,0.00
2022-07-30T03:04:02.468Z,0.00
2022-07-30T03:05:02.439Z,0.00
2022-07-30T03:06:02.421Z,0.00
2022-07-30T03:07:07.914Z,0.00
2022-07-30T03:08:02.348Z,0.00
2022-07-30T03:09:02.320Z,0.00
2022-07-30T03:10:02.316Z,0.00
2022-07-30T03:11:02.254Z,0.00
2022-07-30T03:12:02.228Z,0.00
2022-07-30T03:13:02.196Z,0.00
2022-07-30T03:14:02.163Z,0.00
2022-07-30T03:15:02.127Z,0.00
2022-07-30T03:16:02.149Z,0.00
2022-07-30T03:17:02.596Z,0.00
2022-07-30T03:18:02.042Z,0.00
2022-07-30T03:19:02.015Z,0.00
2022-07-30T03:20:02.002Z,0.00
2022-07-30T03:21:01.964Z,0.00
2022-07-30T03:22:01.917Z,0.00
2022-07-30T03:23:01.884Z,0.00
2022-07-30T03:24:01.859Z,0.00
2022-07-30T03:25:01.825Z,0.00
2022-07-30T03:26:01.794Z,0.00
2022-07-30T03:27:02.236Z,0.00
2022-07-30T03:28:01.757Z,0.00
2022-07-30T03:29:01.700Z,0.00
2022-07-30T03:30:01.672Z,0.00
2022-07-30T03:31:01.690Z,0.00
2022-07-30T03:32:01.609Z,0.00
2022-07-30T03:33:01.575Z,0.00
2022-07-30T03:34:01.547Z,0.00
2022-07-30T03:35:06.071Z,4.00
2022-07-30T03:36:01.485Z,4.00
2022-07-30T03:37:01.829Z,4.00
2022-07-30T03:38:01.422Z,0.00
2022-07-30T03:39:01.396Z,4.00
2022-07-30T03:40:01.365Z,4.00
2022-07-30T03:41:01.337Z,8.00
2022-07-30T03:42:01.302Z,4.00
2022-07-30T03:43:01.281Z,4.00
2022-07-30T03:44:01.242Z,8.00
2022-07-30T03:45:01.208Z,8.00
2022-07-30T03:46:01.180Z,8.00
2022-07-30T03:47:01.401Z,8.00
2022-07-30T03:48:01.118Z,12.00
2022-07-30T03:49:01.140Z,12.00
2022-07-30T03:50:01.057Z,16.00
2022-07-30T03:51:01.028Z,16.00
2022-07-30T03:52:01.040Z,20.00
2022-07-30T03:53:00.966Z,20.00
2022-07-30T03:54:00.942Z,20.00
2022-07-30T03:55:00.904Z,24.00
2022-07-30T03:56:00.873Z,24.00
2022-07-30T03:57:01.129Z,28.00
2022-07-30T03:58:00.806Z,28.00
2022-07-30T03:59:00.781Z,36.00
2022-07-30T04:00:00.747Z,36.00
2022-07-30T04:01:00.715Z,40.00
2022-07-30T04:02:07.103Z,44.00
2022-07-30T04:03:00.654Z,44.00
2022-07-30T04:04:00.666Z,48.00
2022-07-30T04:05:00.593Z,52.00
2022-07-30T04:06:00.564Z,56.00
2022-07-30T04:07:00.881Z,60.00
2022-07-30T04:08:00.500Z,60.00
2022-07-30T04:09:00.468Z,64.00
2022-07-30T04:10:00.440Z,68.00
2022-07-30T04:11:00.423Z,76.00
2022-07-30T04:12:00.377Z,76.00
2022-07-30T04:13:00.348Z,84.00
2022-07-30T04:14:00.315Z,88.00
2022-07-30T04:15:00.294Z,96.00
2022-07-30T04:16:36.927Z,96.00
2022-07-30T04:17:00.527Z,104.00
2022-07-30T04:18:00.191Z,108.00
2022-07-30T04:19:00.162Z,116.00
2022-07-30T04:20:00.150Z,120.00
2022-07-30T04:21:00.108Z,128.00
2022-07-30T04:22:00.074Z,132.00
2022-07-30T04:23:00.037Z,136.00
2022-07-30T04:24:03.215Z,140.00
2022-07-30T04:24:59.980Z,148.00
2022-07-30T04:25:59.949Z,152.00
2022-07-30T04:27:00.108Z,152.00
2022-07-30T04:28:03.733Z,160.00
2022-07-30T04:28:59.852Z,164.00
2022-07-30T04:29:59.822Z,168.00
2022-07-30T04:30:59.837Z,168.00
2022-07-30T04:31:59.756Z,172.00
2022-07-30T04:32:59.732Z,176.00
2022-07-30T04:34:04.538Z,180.00
2022-07-30T04:34:59.667Z,188.00
2022-07-30T04:35:59.632Z,192.00
2022-07-30T04:36:59.913Z,200.00
2022-07-30T04:37:59.581Z,200.00
2022-07-30T04:38:59.544Z,208.00
2022-07-30T04:39:59.513Z,212.00
2022-07-30T04:40:59.484Z,216.00
2022-07-30T04:41:59.451Z,220.00
2022-07-30T04:42:59.419Z,228.00
2022-07-30T04:43:59.385Z,228.00
2022-07-30T04:44:59.353Z,236.00
2022-07-30T04:45:59.405Z,240.00
2022-07-30T04:46:59.644Z,240.00
2022-07-30T04:47:59.278Z,248.00
2022-07-30T04:48:59.273Z,252.00
2022-07-30T04:49:59.197Z,260.00
2022-07-30T04:50:59.167Z,264.00
2022-07-30T04:51:59.137Z,268.00
2022-07-30T04:52:59.111Z,276.00
2022-07-30T04:53:59.078Z,284.00
2022-07-30T04:54:59.041Z,288.00
2022-07-30T04:55:59.009Z,292.00
2022-07-30T04:56:59.010Z,296.00
2022-07-30T04:57:58.961Z,300.00
2022-07-30T04:58:58.919Z,304.00
2022-07-30T04:59:58.886Z,308.00
2022-07-30T05:00:58.860Z,316.00
2022-07-30T05:01:58.904Z,324.00
2022-07-30T05:02:58.794Z,328.00
2022-07-30T05:03:58.767Z,332.00
2022-07-30T05:04:58.809Z,336.00
2022-07-30T05:05:58.700Z,340.00
2022-07-30T05:06:59.106Z,348.00
2022-07-30T05:07:58.638Z,352.00
2022-07-30T05:08:58.610Z,356.00
2022-07-30T05:09:58.602Z,356.00
2022-07-30T05:10:58.546Z,364.00
2022-07-30T05:11:58.512Z,368.00
2022-07-30T05:12:58.486Z,372.00
2022-07-30T05:13:58.451Z,376.00
2022-07-30T05:14:58.422Z,384.00
2022-07-30T05:15:58.469Z,388.00
2022-07-30T05:16:58.785Z,392.00
2022-07-30T05:17:58.327Z,396.00
2022-07-30T05:18:58.299Z,400.00
2022-07-30T05:19:58.268Z,404.00
2022-07-30T05:20:58.236Z,408.00
2022-07-30T05:21:58.204Z,416.00
2022-07-30T05:22:58.178Z,420.00
2022-07-30T05:23:58.144Z,424.00
2022-07-30T05:24:58.118Z,428.00
2022-07-30T05:25:58.083Z,432.00
2022-07-30T05:26:58.300Z,444.00
2022-07-30T05:27:58.022Z,448.00
2022-07-30T05:28:57.994Z,452.00
2022-07-30T05:29:57.962Z,460.00
2022-07-30T05:30:57.980Z,464.00
2022-07-30T05:32:03.249Z,464.00
2022-07-30T05:32:57.865Z,464.00
2022-07-30T05:34:02.521Z,464.00
2022-07-30T05:34:57.808Z,468.00
2022-07-30T05:35:57.775Z,468.00
2022-07-30T05:36:58.334Z,472.00
2022-07-30T05:37:57.715Z,472.00
2022-07-30T05:38:57.680Z,472.00
2022-07-30T05:40:02.872Z,468.00
2022-07-30T05:40:57.620Z,472.00
2022-07-30T05:41:57.596Z,476.00
2022-07-30T05:42:57.561Z,476.00
2022-07-30T05:43:57.527Z,480.00
2022-07-30T05:44:57.552Z,480.00
2022-07-30T05:45:57.542Z,484.00
2022-07-30T05:46:57.653Z,484.00
2022-07-30T05:47:57.403Z,492.00
2022-07-30T05:48:57.419Z,492.00
2022-07-30T05:49:59.369Z,496.00
2022-07-30T05:50:57.312Z,504.00
2022-07-30T05:51:57.280Z,508.00
2022-07-30T05:52:57.251Z,512.00
2022-07-30T05:53:57.221Z,516.00
2022-07-30T05:54:57.190Z,520.00
2022-07-30T05:55:57.157Z,524.00
2022-07-30T05:56:57.128Z,532.00
2022-07-30T05:57:57.156Z,536.00
2022-07-30T05:58:57.069Z,540.00
2022-07-30T05:59:57.034Z,540.00
2022-07-30T06:00:57.003Z,532.00
2022-07-30T06:01:57.031Z,536.00
2022-07-30T06:02:56.943Z,536.00
2022-07-30T06:03:56.918Z,540.00
2022-07-30T06:04:56.980Z,540.00
2022-07-30T06:05:56.849Z,548.00
2022-07-30T06:06:56.821Z,548.00
2022-07-30T06:07:56.789Z,548.00
2022-07-30T06:08:56.754Z,548.00
2022-07-30T06:09:56.724Z,548.00
2022-07-30T06:10:56.698Z,548.00
2022-07-30T06:11:57.514Z,556.00
2022-07-30T06:12:56.633Z,552.00
2022-07-30T06:13:56.604Z,560.00
2022-07-30T06:14:56.585Z,560.00
2022-07-30T06:15:56.598Z,564.00
2022-07-30T06:16:56.511Z,564.00
2022-07-30T06:18:01.718Z,568.00
2022-07-30T06:18:56.448Z,572.00
2022-07-30T06:19:56.417Z,572.00
2022-07-30T06:20:56.386Z,572.00
2022-07-30T06:21:56.357Z,572.00
2022-07-30T06:22:56.325Z,568.00
2022-07-30T06:23:56.296Z,576.00
2022-07-30T06:24:56.264Z,576.00
2022-07-30T06:25:56.239Z,576.00
2022-07-30T06:26:56.200Z,576.00
2022-07-30T06:27:56.170Z,580.00
2022-07-30T06:28:56.139Z,580.00
2022-07-30T06:29:56.106Z,584.00
2022-07-30T06:30:56.105Z,584.00
2022-07-30T06:31:56.046Z,584.00
2022-07-30T06:32:56.018Z,584.00
2022-07-30T06:33:55.986Z,584.00
2022-07-30T06:35:03.950Z,584.00
2022-07-30T06:35:55.925Z,588.00
2022-07-30T06:36:55.892Z,588.00
2022-07-30T06:38:06.160Z,588.00
2022-07-30T06:38:55.834Z,592.00
2022-07-30T06:39:57.402Z,596.00
2022-07-30T06:41:00.518Z,600.00
2022-07-30T06:41:55.740Z,604.00
2022-07-30T06:42:55.708Z,608.00
2022-07-30T06:43:55.706Z,604.00
2022-07-30T06:44:55.645Z,608.00
2022-07-30T06:45:55.692Z,612.00
2022-07-30T06:46:55.589Z,612.00
2022-07-30T06:47:55.552Z,616.00
2022-07-30T06:48:55.554Z,620.00
2022-07-30T06:49:55.493Z,624.00
2022-07-30T06:50:55.478Z,624.00
2022-07-30T06:51:55.432Z,632.00
2022-07-30T06:52:55.400Z,636.00
2022-07-30T06:53:55.371Z,640.00
2022-07-30T06:54:55.342Z,656.00
2022-07-30T06:55:58.502Z,664.00
2022-07-30T06:56:55.278Z,676.00
2022-07-30T06:57:55.255Z,692.00
2022-07-30T06:58:55.220Z,728.00
2022-07-30T06:59:56.522Z,740.00
2022-07-30T07:00:55.150Z,756.00
2022-07-30T07:01:55.198Z,764.00
2022-07-30T07:02:55.094Z,768.00
2022-07-30T07:03:55.110Z,792.00
2022-07-30T07:04:55.033Z,796.00
2022-07-30T07:05:54.997Z,784.00
2022-07-30T07:06:54.973Z,820.00
2022-07-30T07:07:59.508Z,820.00
2022-07-30T07:08:54.919Z,820.00
2022-07-30T07:09:54.877Z,836.00
2022-07-30T07:10:54.845Z,764.00
2022-07-30T07:11:54.820Z,704.00
2022-07-30T07:12:54.785Z,732.00
2022-07-30T07:13:54.757Z,760.00
2022-07-30T07:14:54.725Z,740.00
2022-07-30T07:15:54.692Z,728.00
2022-07-30T07:16:54.723Z,764.00
2022-07-30T07:17:54.636Z,820.00
2022-07-30T07:18:54.617Z,844.00
2022-07-30T07:19:59.781Z,808.00
2022-07-30T07:20:54.538Z,756.00
2022-07-30T07:21:54.515Z,712.00
2022-07-30T07:22:54.480Z,776.00
2022-07-30T07:23:54.448Z,872.00
2022-07-30T07:24:54.415Z,896.00
2022-07-30T07:25:54.384Z,948.00
2022-07-30T07:26:54.356Z,1004.00
2022-07-30T07:28:11.740Z,1052.00
2022-07-30T07:28:54.293Z,988.00
2022-07-30T07:30:04.666Z,1008.00
2022-07-30T07:30:54.274Z,984.00
2022-07-30T07:32:06.962Z,952.00
2022-07-30T07:32:54.171Z,868.00
2022-07-30T07:33:54.145Z,928.00
2022-07-30T07:34:54.113Z,1020.00
2022-07-30T07:35:54.078Z,988.00
2022-07-30T07:36:54.048Z,884.00
2022-07-30T07:37:54.022Z,812.00
2022-07-30T07:38:53.993Z,808.00
2022-07-30T07:39:53.953Z,812.00
2022-07-30T07:40:53.933Z,832.00
2022-07-30T07:41:53.896Z,928.00
2022-07-30T07:42:53.869Z,928.00
2022-07-30T07:43:53.835Z,932.00
2022-07-30T07:44:53.805Z,928.00
2022-07-30T07:45:53.811Z,880.00
2022-07-30T07:46:53.746Z,908.00
2022-07-30T07:47:53.717Z,1044.00
2022-07-30T07:48:53.716Z,940.00
2022-07-30T07:49:53.649Z,864.00
2022-07-30T07:50:57.088Z,788.00
2022-07-30T07:51:53.588Z,832.00
2022-07-30T07:52:53.571Z,788.00
2022-07-30T07:54:18.507Z,800.00
2022-07-30T07:54:53.512Z,848.00
2022-07-30T07:55:53.473Z,852.00
2022-07-30T07:56:53.555Z,920.00
2022-07-30T07:57:53.411Z,964.00
2022-07-30T07:58:56.594Z,1012.00
2022-07-30T07:59:53.346Z,920.00
2022-07-30T08:00:53.331Z,924.00
2022-07-30T08:01:53.283Z,928.00
2022-07-30T08:02:53.336Z,960.00
2022-07-30T08:03:53.226Z,964.00
2022-07-30T08:04:53.199Z,1088.00
2022-07-30T08:05:56.820Z,1236.00
2022-07-30T08:06:53.149Z,1260.00
2022-07-30T08:07:53.106Z,1176.00
2022-07-30T08:08:53.076Z,1192.00
2022-07-30T08:09:53.045Z,1216.00
2022-07-30T08:10:53.010Z,1144.00
2022-07-30T08:11:52.983Z,1096.00
2022-07-30T08:12:52.954Z,1176.00
2022-07-30T08:13:53.239Z,1232.00
2022-07-30T08:14:52.895Z,1416.00
2022-07-30T08:15:52.863Z,1580.00
2022-07-30T08:16:52.875Z,1528.00
2022-07-30T08:17:52.804Z,1512.00
2022-07-30T08:18:52.772Z,1436.00
2022-07-30T08:19:52.742Z,1536.00
2022-07-30T08:20:52.709Z,1484.00
2022-07-30T08:21:52.682Z,1384.00
2022-07-30T08:22:52.651Z,1256.00
2022-07-30T08:23:52.618Z,1248.00
2022-07-30T08:24:52.602Z,1372.00
2022-07-30T08:25:52.559Z,1468.00
2022-07-30T08:26:52.534Z,1468.00
2022-07-30T08:27:52.688Z,1572.00
2022-07-30T08:28:54.458Z,1656.00
2022-07-30T08:29:52.512Z,1740.00
2022-07-30T08:30:52.412Z,1656.00
2022-07-30T08:31:52.390Z,1512.00
2022-07-30T08:32:52.410Z,1400.00
2022-07-30T08:33:52.318Z,1292.00
2022-07-30T08:34:52.300Z,1368.00
2022-07-30T08:35:57.242Z,1264.00
2022-07-30T08:36:52.226Z,1116.00
2022-07-30T08:37:52.232Z,1124.00
2022-07-30T08:38:52.168Z,1168.00
2022-07-30T08:39:52.139Z,1136.00
2022-07-30T08:40:52.109Z,1316.00
2022-07-30T08:41:52.084Z,1436.00
2022-07-30T08:42:52.050Z,1272.00
2022-07-30T08:43:52.018Z,1272.00
2022-07-30T08:44:51.991Z,1432.00
2022-07-30T08:45:51.959Z,1564.00
2022-07-30T08:46:51.936Z,1552.00
2022-07-30T08:47:51.902Z,1444.00
2022-07-30T08:48:51.895Z,1328.00
2022-07-30T08:49:51.869Z,1076.00
2022-07-30T08:50:51.809Z,960.00
2022-07-30T08:51:51.780Z,896.00
2022-07-30T08:52:51.750Z,984.00
2022-07-30T08:53:51.722Z,1192.00
2022-07-30T08:54:51.707Z,1400.00
2022-07-30T08:55:54.566Z,1500.00
2022-07-30T08:56:51.633Z,1364.00
2022-07-30T08:57:51.602Z,1176.00
2022-07-30T08:58:51.575Z,1112.00
2022-07-30T09:00:00.157Z,1028.00
2022-07-30T09:00:51.541Z,1024.00
2022-07-30T09:01:51.560Z,1100.00
2022-07-30T09:02:51.454Z,1020.00
2022-07-30T09:03:51.555Z,948.00
2022-07-30T09:04:51.393Z,936.00
2022-07-30T09:05:51.362Z,960.00
2022-07-30T09:06:51.337Z,968.00
2022-07-30T09:07:51.305Z,1024.00
2022-07-30T09:08:51.273Z,1000.00
2022-07-30T09:09:51.244Z,996.00
2022-07-30T09:10:53.070Z,1060.00
2022-07-30T09:11:51.218Z,1192.00
2022-07-30T09:12:51.154Z,1232.00
2022-07-30T09:13:51.132Z,1220.00
2022-07-30T09:14:51.100Z,1144.00
2022-07-30T09:15:51.073Z,988.00
2022-07-30T09:16:51.037Z,848.00
2022-07-30T09:17:51.011Z,916.00
2022-07-30T09:18:50.987Z,916.00
2022-07-30T09:19:50.953Z,928.00
2022-07-30T09:20:50.920Z,992.00
2022-07-30T09:21:50.893Z,1000.00
2022-07-30T09:22:50.861Z,1008.00
2022-07-30T09:23:51.234Z,1032.00
2022-07-30T09:24:50.808Z,1040.00
2022-07-30T09:25:50.774Z,1012.00
2022-07-30T09:26:50.754Z,988.00
2022-07-30T09:27:50.714Z,984.00
2022-07-30T09:28:50.692Z,968.00
2022-07-30T09:29:50.658Z,960.00
2022-07-30T09:30:50.629Z,976.00
2022-07-30T09:31:50.594Z,984.00
2022-07-30T09:32:50.570Z,988.00
2022-07-30T09:33:50.539Z,1008.00
2022-07-30T09:34:50.514Z,1008.00
2022-07-30T09:35:50.480Z,1028.00
2022-07-30T09:36:50.450Z,1056.00
2022-07-30T09:37:50.423Z,1084.00
2022-07-30T09:38:50.404Z,1108.00
2022-07-30T09:39:58.953Z,1140.00
2022-07-30T09:40:50.341Z,1132.00
2022-07-30T09:41:50.307Z,1136.00
2022-07-30T09:42:50.275Z,1128.00
2022-07-30T09:43:50.246Z,1152.00
2022-07-30T09:44:50.220Z,1192.00
2022-07-30T09:45:56.731Z,1216.00
2022-07-30T09:46:50.160Z,1168.00
2022-07-30T09:47:50.128Z,1132.00
2022-07-30T09:48:50.138Z,1128.00
2022-07-30T09:49:50.070Z,1096.00
2022-07-30T09:50:50.255Z,1048.00
2022-07-30T09:51:54.559Z,1044.00
2022-07-30T09:52:49.986Z,1092.00
2022-07-30T09:53:49.957Z,1108.00
2022-07-30T09:54:51.580Z,1140.00
2022-07-30T09:55:49.899Z,1148.00
2022-07-30T09:56:53.870Z,1164.00
2022-07-30T09:57:52.213Z,1196.00
2022-07-30T09:58:49.813Z,1220.00
2022-07-30T09:59:49.783Z,1196.00
2022-07-30T10:00:49.829Z,1164.00
2022-07-30T10:01:54.662Z,1088.00
2022-07-30T10:02:49.697Z,1100.00
2022-07-30T10:03:49.669Z,1108.00
2022-07-30T10:04:49.637Z,1116.00
2022-07-30T10:05:49.612Z,1088.00
2022-07-30T10:06:49.578Z,1072.00
2022-07-30T10:07:49.557Z,1088.00
2022-07-30T10:08:49.525Z,1096.00
2022-07-30T10:09:49.494Z,1092.00
2022-07-30T10:10:50.884Z,1080.00
2022-07-30T10:11:49.455Z,1080.00
2022-07-30T10:12:49.419Z,1080.00
2022-07-30T10:13:49.381Z,1080.00
2022-07-30T10:14:49.352Z,1076.00
2022-07-30T10:15:49.348Z,1060.00
2022-07-30T10:16:49.296Z,1056.00
2022-07-30T10:17:49.270Z,1048.00
2022-07-30T10:18:49.241Z,1044.00
2022-07-30T10:19:49.226Z,1056.00
2022-07-30T10:20:49.186Z,1052.00
2022-07-30T10:21:49.155Z,1000.00
2022-07-30T10:22:50.556Z,992.00
2022-07-30T10:23:49.153Z,1000.00
2022-07-30T10:24:49.069Z,1016.00
2022-07-30T10:25:54.869Z,1032.00
2022-07-30T10:26:49.054Z,1052.00
2022-07-30T10:27:48.981Z,1052.00
2022-07-30T10:28:48.956Z,1056.00
2022-07-30T10:29:48.926Z,1060.00
2022-07-30T10:30:48.910Z,1048.00
2022-07-30T10:31:54.475Z,1052.00
2022-07-30T10:32:52.597Z,1052.00
2022-07-30T10:33:48.813Z,1052.00
2022-07-30T10:34:48.785Z,1068.00
2022-07-30T10:35:49.639Z,1092.00
2022-07-30T10:36:48.741Z,1096.00
2022-07-30T10:37:48.703Z,1116.00
2022-07-30T10:38:52.698Z,1116.00
2022-07-30T10:39:48.645Z,1112.00
2022-07-30T10:40:48.616Z,1108.00
2022-07-30T10:41:53.943Z,1100.00
2022-07-30T10:42:48.560Z,1096.00
2022-07-30T10:43:48.534Z,1100.00
2022-07-30T10:44:48.507Z,1108.00
2022-07-30T10:45:48.477Z,1112.00
2022-07-30T10:46:48.450Z,1120.00
2022-07-30T10:47:49.194Z,1132.00
2022-07-30T10:48:48.433Z,1144.00
2022-07-30T10:49:48.443Z,1164.00
2022-07-30T10:50:48.342Z,1176.00
2022-07-30T10:51:48.310Z,1184.00
2022-07-30T10:52:48.284Z,1196.00
2022-07-30T10:53:48.445Z,1208.00
2022-07-30T10:54:48.229Z,1220.00
2022-07-30T10:55:48.205Z,1232.00
2022-07-30T10:56:48.176Z,1236.00
2022-07-30T10:57:48.150Z,1224.00
2022-07-30T10:58:48.562Z,1220.00
2022-07-30T10:59:48.093Z,1228.00
2022-07-30T11:00:48.072Z,1224.00
2022-07-30T11:01:51.762Z,1232.00
2022-07-30T11:02:48.018Z,1252.00
2022-07-30T11:03:47.989Z,1264.00
2022-07-30T11:04:47.961Z,1280.00
2022-07-30T11:05:47.945Z,1300.00
2022-07-30T11:06:47.904Z,1452.00
2022-07-30T11:07:47.877Z,1608.00
2022-07-30T11:08:48.167Z,1684.00
2022-07-30T11:10:00.032Z,1772.00
2022-07-30T11:10:47.801Z,1876.00
2022-07-30T11:12:01.127Z,1968.00
2022-07-30T11:12:52.961Z,2076.00
2022-07-30T11:13:47.716Z,2196.00
2022-07-30T11:14:47.697Z,2328.00
2022-07-30T11:15:47.664Z,2452.00
2022-07-30T11:16:47.641Z,2572.00
2022-07-30T11:17:47.614Z,2676.00
2022-07-30T11:18:47.936Z,2776.00
2022-07-30T11:19:56.432Z,2836.00
2022-07-30T11:20:48.695Z,2920.00
2022-07-30T11:21:47.510Z,2996.00
2022-07-30T11:22:51.031Z,3096.00
2022-07-30T11:23:47.469Z,3176.00
2022-07-30T11:24:47.435Z,3240.00
2022-07-30T11:25:51.209Z,3308.00
2022-07-30T11:26:47.380Z,3460.00
2022-07-30T11:27:48.591Z,3584.00
2022-07-30T11:28:49.457Z,3732.00
2022-07-30T11:29:50.440Z,3852.00
2022-07-30T11:30:49.502Z,4000.00
2022-07-30T11:31:58.515Z,3768.00
2022-07-30T11:32:48.423Z,3776.00
2022-07-30T11:33:47.202Z,4128.00
2022-07-30T11:34:47.180Z,4200.00
2022-07-30T11:35:47.153Z,4384.00
2022-07-30T11:36:47.556Z,4812.00
2022-07-30T11:37:52.131Z,4972.00
2022-07-30T11:38:47.080Z,5108.00
2022-07-30T11:39:47.053Z,5272.00
2022-07-30T11:40:47.028Z,5392.00
2022-07-30T11:41:47.011Z,5580.00
2022-07-30T11:42:46.987Z,5660.00
2022-07-30T11:43:46.956Z,5772.00
2022-07-30T11:44:46.937Z,5888.00
2022-07-30T11:45:46.905Z,6044.00
2022-07-30T11:46:46.887Z,6176.00
2022-07-30T11:47:46.857Z,6312.00
2022-07-30T11:48:46.889Z,6492.00
2022-07-30T11:49:46.811Z,6628.00
2022-07-30T11:50:46.790Z,6752.00
2022-07-30T11:51:46.765Z,6228.00
2022-07-30T11:52:46.751Z,6756.00
2022-07-30T11:53:46.719Z,6828.00
2022-07-30T11:54:46.691Z,6632.00
2022-07-30T11:55:46.671Z,6380.00
2022-07-30T11:56:46.646Z,6188.00
2022-07-30T11:57:46.626Z,6268.00
2022-07-30T11:58:46.599Z,6144.00
2022-07-30T11:59:46.575Z,5892.00
2022-07-30T12:00:46.551Z,6560.00
2022-07-30T12:01:46.535Z,6888.00
2022-07-30T12:02:46.565Z,7168.00
2022-07-30T12:03:46.479Z,7636.00
2022-07-30T12:04:46.455Z,7576.00
2022-07-30T12:05:46.434Z,7944.00
2022-07-30T12:06:46.415Z,8176.00
2022-07-30T12:07:46.386Z,8184.00
2022-07-30T12:08:46.363Z,8236.00
2022-07-30T12:09:46.340Z,8392.00
2022-07-30T12:10:46.319Z,8584.00
2022-07-30T12:11:46.293Z,8460.00
2022-07-30T12:12:46.270Z,7748.00
2022-07-30T12:13:46.383Z,6348.00
2022-07-30T12:14:46.227Z,6472.00
2022-07-30T12:15:46.204Z,6376.00
2022-07-30T12:16:46.178Z,6484.00
2022-07-30T12:17:46.159Z,5240.00
2022-07-30T12:18:46.133Z,5312.00
2022-07-30T12:19:48.266Z,4756.00
2022-07-30T12:20:46.084Z,6216.00
2022-07-30T12:21:49.550Z,6988.00
2022-07-30T12:22:46.040Z,6956.00
2022-07-30T12:23:46.016Z,7068.00
2022-07-30T12:24:46.001Z,7464.00
2022-07-30T12:25:47.716Z,7316.00
2022-07-30T12:26:45.946Z,7336.00
2022-07-30T12:27:50.366Z,7800.00
2022-07-30T12:28:45.899Z,8116.00
2022-07-30T12:29:45.877Z,8932.00
2022-07-30T12:30:45.852Z,9344.00
2022-07-30T12:31:45.830Z,9936.00
2022-07-30T12:32:45.805Z,10280.00
2022-07-30T12:33:45.780Z,10560.00
2022-07-30T12:34:45.763Z,10572.00
2022-07-30T12:35:45.738Z,10392.00
2022-07-30T12:36:45.714Z,10448.00
2022-07-30T12:37:45.693Z,10772.00
2022-07-30T12:38:45.669Z,10904.00
2022-07-30T12:39:45.649Z,10724.00